Granbury, TX

12:46 AM CST on February 27, 2017 (GMT -0600)
Granbury

Weather History for KGDJ - November, 2012

Change the Weather History Date:

Sunday, November 18, 2012

  Actual Average (KMWL) Record (KMWL)
Temperature  
Mean Temperature 58 °F -  
Max Temperature 71 °F 64 °F 80 °F (1999)
Min Temperature 46 °F 43 °F 19 °F (2014)
Degree Days  
Heating Degree Days 6    
Growing Degree Days 8 (Base 50)    
Moisture  
Dew Point 36 °F    
Average Humidity 45    
Maximum Humidity 62    
Minimum Humidity 25    
Precipitation  
Precipitation 0.00 in - - ()
Sea Level Pressure  
Sea Level Pressure 30.24 in    
Wind  
Wind Speed 7 mph (ESE)    
Max Wind Speed 16 mph    
Max Gust Speed 22 mph    
Visibility 8 miles    
Events      
Averages and records for this station are not official NWS values.
T = Trace of Precipitation, MM = Missing Value Source: NWS Daily Summary

Daily Weather History Graph

Daily Weather History Graph

Search for Another Location

Airport or City:

Trip Planner

Search our weather history database for the weather conditions in past years. The results will help you decide how hot, cold, wet, or windy it might be!

Date:

Astronomy

Nov. 18, 2012 Rise Set
Actual Time 7:03 AM CST 5:28 PM CST
Civil Twilight 6:37 AM CST 5:55 PM CST
Nautical Twilight 6:07 AM CST 6:24 PM CST
Astronomical Twilight 5:38 AM CST 6:54 PM CST
Moon 11:35 AM CST (11/18) 10:45 PM CST (11/18)
Length of Visible Light 11h 17m
Length of Day
10h 24m
Waxing Crescent, 30% of the Moon is Illuminated
Nov 18
Waxing Crescent
Nov 20
First Quarter
Nov 28
Full
Dec 6
Last Quarter
Dec 13
New

Hourly Weather History & Observations

Time (CST) Temp. Windchill Dew Point Humidity Pressure Visibility Wind Dir Wind Speed Gust Speed Precip Events Conditions
12:15 AM 50.0 °F - 32.0 °F 50% 30.28 in 10.0 mi ESE 6.9 mph - N/A   Clear
12:35 AM 48.2 °F - 32.0 °F 54% 30.29 in 10.0 mi ESE 4.6 mph - N/A   Clear
12:55 AM 48.2 °F - 32.0 °F 54% 30.29 in 10.0 mi ESE 3.5 mph - N/A   Clear
1:15 AM 50.0 °F - 33.8 °F 54% 30.29 in 10.0 mi Calm Calm - N/A   Clear
1:35 AM 46.4 °F 45.2 °F 32.0 °F 57% 30.28 in 10.0 mi ESE 3.5 mph - N/A   Clear
1:55 AM 48.2 °F - 33.8 °F 58% 30.28 in 10.0 mi Calm Calm - N/A   Clear
2:15 AM 46.4 °F 45.2 °F 33.8 °F 62% 30.27 in 10.0 mi ESE 3.5 mph - N/A   Mostly Cloudy
2:35 AM 50.0 °F - 33.8 °F 54% 30.27 in 10.0 mi ESE 6.9 mph - N/A   Overcast
2:55 AM 50.0 °F - 33.8 °F 54% 30.27 in 10.0 mi ESE 8.1 mph - N/A   Overcast
3:15 AM 50.0 °F - 33.8 °F 54% 30.26 in 10.0 mi ESE 6.9 mph - N/A   Overcast
3:35 AM 50.0 °F - 33.8 °F 54% 30.26 in 10.0 mi SE 6.9 mph - N/A   Mostly Cloudy
3:55 AM 48.2 °F - 33.8 °F 58% 30.26 in 7.0 mi ESE 6.9 mph - N/A   Scattered Clouds
4:15 AM 48.2 °F - 33.8 °F 58% 30.26 in 10.0 mi ESE 5.8 mph - N/A   Mostly Cloudy
4:35 AM 50.0 °F - 33.8 °F 54% 30.27 in 10.0 mi ESE 6.9 mph - N/A   Overcast
4:55 AM 50.0 °F - 33.8 °F 54% 30.26 in 10.0 mi ESE 6.9 mph - N/A   Mostly Cloudy
5:15 AM 48.2 °F - 33.8 °F 58% 30.27 in 7.0 mi ESE 6.9 mph - N/A   Scattered Clouds
5:35 AM 50.0 °F - 33.8 °F 54% 30.26 in 7.0 mi ESE 8.1 mph - N/A   Mostly Cloudy
5:55 AM 50.0 °F - 35.6 °F 58% 30.27 in 7.0 mi ESE 5.8 mph - N/A   Overcast
6:15 AM 50.0 °F - 35.6 °F 58% 30.27 in 7.0 mi ESE 5.8 mph - N/A   Overcast
6:35 AM 48.2 °F - 35.6 °F 62% 30.27 in 3.0 mi East 5.8 mph - N/A   Haze
6:55 AM 48.2 °F - 35.6 °F 62% 30.27 in 2.5 mi ESE 4.6 mph - N/A   Haze
7:15 AM 50.0 °F - 35.6 °F 58% 30.28 in 1.8 mi SE 4.6 mph - N/A   Haze
7:55 AM 50.0 °F - 35.6 °F 58% 30.29 in 2.0 mi East 4.6 mph - N/A   Haze
8:15 AM 50.0 °F - 35.6 °F 58% 30.29 in 2.5 mi East 3.5 mph - N/A   Haze
8:35 AM 50.0 °F - 35.6 °F 58% 30.29 in 1.5 mi ESE 5.8 mph - N/A   Haze
8:55 AM 51.8 °F - 35.6 °F 54% 30.29 in 1.2 mi ESE 5.8 mph - N/A   Haze
9:15 AM 53.6 °F - 35.6 °F 51% 30.29 in 1.5 mi ESE 4.6 mph - N/A   Haze
9:35 AM 53.6 °F - 35.6 °F 51% 30.30 in 2.0 mi ESE 5.8 mph - N/A   Haze
9:55 AM 55.4 °F - 35.6 °F 47% 30.30 in 1.5 mi SE 6.9 mph - N/A   Haze
10:15 AM 57.2 °F - 35.6 °F 44% 30.30 in 1.5 mi ESE 6.9 mph - N/A   Haze
10:35 AM 59.0 °F - 35.6 °F 42% 30.30 in 2.0 mi ESE 5.8 mph - N/A   Haze
10:55 AM 60.8 °F - 35.6 °F 39% 30.30 in 1.5 mi ESE 8.1 mph - N/A   Haze
11:15 AM 64.4 °F - 35.6 °F 34% 30.28 in 1.5 mi SE 8.1 mph - N/A   Haze
11:35 AM 64.4 °F - 35.6 °F 34% 30.27 in 1.5 mi SE 10.4 mph - N/A   Haze
11:55 AM 66.2 °F - 35.6 °F 32% 30.26 in 1.5 mi ESE 9.2 mph 17.3 mph N/A   Haze
12:15 PM 68.0 °F - 33.8 °F 28% 30.24 in 2.5 mi SE 16.1 mph - N/A   Haze
12:35 PM 69.8 °F - 33.8 °F 27% 30.22 in 10.0 mi SE 15.0 mph 19.6 mph N/A   Clear
12:55 PM 69.8 °F - 33.8 °F 27% 30.21 in 10.0 mi SE 10.4 mph 19.6 mph N/A   Clear
1:15 PM 69.8 °F - 32.0 °F 25% 30.19 in 10.0 mi ESE 16.1 mph 21.9 mph N/A   Clear
1:35 PM 71.6 °F - 33.8 °F 25% 30.18 in 10.0 mi SE 12.7 mph 19.6 mph N/A   Clear
1:55 PM 71.6 °F - 33.8 °F 25% 30.18 in 10.0 mi SE 11.5 mph 19.6 mph N/A   Clear
2:15 PM 69.8 °F - 33.8 °F 27% 30.18 in 10.0 mi SE 12.7 mph 20.7 mph N/A   Clear
2:35 PM 69.8 °F - 33.8 °F 27% 30.18 in 10.0 mi SE 16.1 mph - N/A   Clear
2:55 PM 69.8 °F - 33.8 °F 27% 30.19 in 10.0 mi SSE 13.8 mph - N/A   Clear
3:15 PM 69.8 °F - 32.0 °F 25% 30.19 in 10.0 mi SE 15.0 mph 19.6 mph N/A   Clear
3:35 PM 69.8 °F - 33.8 °F 27% 30.19 in 10.0 mi SSE 12.7 mph - N/A   Clear
3:55 PM 69.8 °F - 33.8 °F 27% 30.18 in 10.0 mi SE 9.2 mph - N/A   Clear
4:15 PM 69.8 °F - 33.8 °F 27% 30.18 in 10.0 mi ESE 10.4 mph - N/A   Clear
4:35 PM 68.0 °F - 35.6 °F 30% 30.18 in 10.0 mi ESE 12.7 mph - N/A   Clear
4:55 PM 68.0 °F - 35.6 °F 30% 30.18 in 10.0 mi ESE 6.9 mph - N/A   Clear
5:15 PM 68.0 °F - 35.6 °F 30% 30.19 in 10.0 mi SE 9.2 mph - N/A   Clear
5:35 PM 68.0 °F - 35.6 °F 30% 30.20 in 10.0 mi SE 5.8 mph - N/A   Clear
5:55 PM 68.0 °F - 35.6 °F 30% 30.20 in 10.0 mi SE 5.8 mph - N/A   Clear
6:15 PM 66.2 °F - 37.4 °F 35% 30.20 in 10.0 mi ESE 6.9 mph - N/A   Scattered Clouds
6:35 PM 64.4 °F - 37.4 °F 37% 30.20 in 10.0 mi ESE 6.9 mph - N/A   Scattered Clouds
6:55 PM 64.4 °F - 39.2 °F 40% 30.21 in 10.0 mi ESE 5.8 mph - N/A   Clear
7:15 PM 64.4 °F - 41.0 °F 42% 30.21 in 10.0 mi SE 5.8 mph - N/A   Clear
7:35 PM 62.6 °F - 41.0 °F 45% 30.22 in 10.0 mi SE 5.8 mph - N/A   Clear
7:55 PM 62.6 °F - 41.0 °F 45% 30.22 in 10.0 mi SE 5.8 mph - N/A   Clear
8:15 PM 62.6 °F - 41.0 °F 45% 30.22 in 10.0 mi SE 5.8 mph - N/A   Clear
8:35 PM 60.8 °F - 41.0 °F 48% 30.22 in 10.0 mi ESE 5.8 mph - N/A   Clear
8:55 PM 60.8 °F - 41.0 °F 48% 30.21 in 10.0 mi ESE 5.8 mph - N/A   Clear
9:15 PM 60.8 °F - 41.0 °F 48% 30.22 in 10.0 mi SE 4.6 mph - N/A   Scattered Clouds
9:35 PM 60.8 °F - 41.0 °F 48% 30.22 in 10.0 mi SE 5.8 mph - N/A   Mostly Cloudy
9:55 PM 59.0 °F - 41.0 °F 51% 30.22 in 10.0 mi ESE 6.9 mph - N/A   Scattered Clouds
10:15 PM 59.0 °F - 41.0 °F 51% 30.22 in 10.0 mi ESE 5.8 mph - N/A   Clear
10:35 PM 59.0 °F - 41.0 °F 51% 30.22 in 10.0 mi ESE 6.9 mph - N/A   Clear
10:55 PM 59.0 °F - 42.8 °F 55% 30.22 in 10.0 mi ESE 5.8 mph - N/A   Clear
11:15 PM 59.0 °F - 42.8 °F 55% 30.21 in 10.0 mi ESE 5.8 mph - N/A   Clear
11:35 PM 59.0 °F - 42.8 °F 55% 30.21 in 10.0 mi ESE 8.1 mph - N/A   Clear
11:55 PM 59.0 °F - 42.8 °F 55% 30.21 in 10.0 mi ESE 8.1 mph - N/A   Clear